createdAt,value
2023-01-29T00:01:17.737Z,3.08
2023-01-29T00:03:53.367Z,3.07
2023-01-29T00:06:27.063Z,3.09
2023-01-29T00:09:00.764Z,3.13
2023-01-29T00:11:35.006Z,3.06
2023-01-29T00:14:08.880Z,3.03
2023-01-29T00:16:42.678Z,3.09
2023-01-29T00:19:17.946Z,3.10
2023-01-29T00:21:51.476Z,3.08
2023-01-29T00:24:25.350Z,3.15
2023-01-29T00:26:58.975Z,3.04
2023-01-29T00:29:32.782Z,3.04
2023-01-29T00:32:06.618Z,2.92
2023-01-29T00:34:41.823Z,2.89
2023-01-29T00:37:15.494Z,2.96
2023-01-29T00:39:49.318Z,2.92
2023-01-29T00:42:40.746Z,2.87
2023-01-29T00:45:14.961Z,2.91
2023-01-29T00:47:48.595Z,2.89
2023-01-29T00:50:23.804Z,2.97
2023-01-29T00:52:57.382Z,3.00
2023-01-29T00:55:31.265Z,3.02
2023-01-29T00:58:04.734Z,3.07
2023-01-29T01:00:38.521Z,3.03
2023-01-29T01:03:11.030Z,3.05
2023-01-29T01:05:46.112Z,3.09
2023-01-29T01:08:37.162Z,3.15
2023-01-29T01:11:11.175Z,3.08
2023-01-29T01:13:44.839Z,3.08
2023-01-29T01:16:20.771Z,3.13
2023-01-29T01:18:54.392Z,3.06
2023-01-29T01:21:29.435Z,3.06
2023-01-29T01:24:05.926Z,3.05
2023-01-29T01:26:39.756Z,3.14
2023-01-29T01:29:13.556Z,3.17
2023-01-29T01:31:47.454Z,3.17
2023-01-29T01:34:22.047Z,3.22
2023-01-29T01:36:57.356Z,3.24
2023-01-29T01:39:31.118Z,3.23
2023-01-29T01:42:05.205Z,3.27
2023-01-29T01:45:01.076Z,3.30
2023-01-29T01:47:39.991Z,3.27
2023-01-29T01:50:17.636Z,3.26
2023-01-29T01:52:56.490Z,3.18
2023-01-29T01:55:34.224Z,3.16
2023-01-29T01:58:13.159Z,3.16
2023-01-29T02:00:46.794Z,3.15
2023-01-29T02:03:41.301Z,3.19
2023-01-29T02:06:32.239Z,3.21
2023-01-29T02:09:33.397Z,3.27
2023-01-29T02:12:09.851Z,3.26
2023-01-29T02:14:45.223Z,3.27
2023-01-29T02:17:20.579Z,3.32
2023-01-29T02:20:03.392Z,3.30
2023-01-29T02:22:59.052Z,3.31
2023-01-29T02:26:09.248Z,3.34
2023-01-29T02:28:49.007Z,3.34
2023-01-29T02:31:32.059Z,3.18
2023-01-29T02:34:14.326Z,3.26
2023-01-29T02:36:51.927Z,3.28
2023-01-29T02:39:34.164Z,3.25
2023-01-29T02:42:16.730Z,3.35
2023-01-29T02:44:58.529Z,3.28
2023-01-29T02:47:40.687Z,3.36
2023-01-29T02:50:20.467Z,3.32
2023-01-29T02:53:03.691Z,3.27
2023-01-29T02:55:43.454Z,3.24
2023-01-29T02:58:22.394Z,3.32
2023-01-29T03:01:03.903Z,3.35
2023-01-29T03:03:41.588Z,3.26
2023-01-29T03:06:22.336Z,3.31
2023-01-29T03:09:00.110Z,3.38
2023-01-29T03:11:38.268Z,3.33
2023-01-29T03:14:16.930Z,3.37
2023-01-29T03:16:53.480Z,3.37
2023-01-29T03:19:34.502Z,3.32
2023-01-29T03:22:11.443Z,3.40
2023-01-29T03:25:05.166Z,3.30
2023-01-29T03:28:01.675Z,3.38
2023-01-29T03:31:00.000Z,3.33
2023-01-29T03:33:43.404Z,3.33
2023-01-29T03:36:21.452Z,3.41
2023-01-29T03:38:54.997Z,3.31
2023-01-29T03:41:34.357Z,3.40
2023-01-29T03:44:16.714Z,3.41
2023-01-29T03:46:57.190Z,3.47
2023-01-29T03:49:46.850Z,3.49
2023-01-29T03:52:25.594Z,3.49
2023-01-29T03:55:06.877Z,3.53
2023-01-29T03:57:45.568Z,3.48
2023-01-29T04:00:25.959Z,3.53
2023-01-29T04:03:07.847Z,3.55
2023-01-29T04:05:48.134Z,3.49
2023-01-29T04:08:27.937Z,3.55
2023-01-29T04:11:06.861Z,3.51
2023-01-29T04:13:41.417Z,3.54
2023-01-29T04:16:19.586Z,3.52
2023-01-29T04:18:54.745Z,3.41
2023-01-29T04:21:31.814Z,3.49
2023-01-29T04:24:07.338Z,3.43
2023-01-29T04:26:56.603Z,3.45
2023-01-29T04:29:44.640Z,3.41
2023-01-29T04:32:27.426Z,3.42
2023-01-29T04:35:10.576Z,3.41
2023-01-29T04:37:55.268Z,3.41
2023-01-29T04:40:38.447Z,3.40
2023-01-29T04:43:21.282Z,3.40
2023-01-29T04:46:10.511Z,3.39
2023-01-29T04:49:02.755Z,3.32
2023-01-29T04:51:44.728Z,3.26
2023-01-29T04:54:27.648Z,3.21
2023-01-29T04:57:10.566Z,3.31
2023-01-29T04:59:48.625Z,3.26
2023-01-29T05:02:25.436Z,3.25
2023-01-29T05:04:59.932Z,3.23
2023-01-29T05:07:38.133Z,3.22
2023-01-29T05:10:15.706Z,3.26
2023-01-29T05:12:55.207Z,3.25
2023-01-29T05:15:35.354Z,3.14
2023-01-29T05:18:10.237Z,3.08
2023-01-29T05:20:45.523Z,3.19
2023-01-29T05:23:20.945Z,3.10
2023-01-29T05:25:57.668Z,3.10
2023-01-29T05:28:30.638Z,3.19
2023-01-29T05:31:04.308Z,3.19
2023-01-29T05:33:38.057Z,3.21
2023-01-29T05:36:11.745Z,3.02
2023-01-29T05:38:45.448Z,2.94
2023-01-29T05:41:21.018Z,2.91
2023-01-29T05:43:54.911Z,2.86
2023-01-29T05:46:28.547Z,2.84
2023-01-29T05:49:02.827Z,2.87
2023-01-29T05:51:36.632Z,2.91
2023-01-29T05:54:12.585Z,2.96
2023-01-29T05:56:47.662Z,3.01
2023-01-29T05:59:21.456Z,3.02
2023-01-29T06:01:55.032Z,2.90
2023-01-29T06:04:28.735Z,2.84
2023-01-29T06:07:03.421Z,2.87
2023-01-29T06:09:37.182Z,2.76
2023-01-29T06:12:12.929Z,2.72
2023-01-29T06:14:46.763Z,2.75
2023-01-29T06:17:20.586Z,2.78
2023-01-29T06:19:54.368Z,2.73
2023-01-29T06:22:28.122Z,2.72
2023-01-29T06:25:01.977Z,2.80
2023-01-29T06:27:37.148Z,2.72
2023-01-29T06:30:12.044Z,2.76
2023-01-29T06:32:45.732Z,2.72
2023-01-29T06:35:19.507Z,2.70
2023-01-29T06:37:53.210Z,2.68
2023-01-29T06:40:26.982Z,2.71
2023-01-29T06:43:02.668Z,2.72
2023-01-29T06:45:36.439Z,2.67
2023-01-29T06:48:09.998Z,2.66
2023-01-29T06:50:43.938Z,2.75
2023-01-29T06:53:18.162Z,2.74
2023-01-29T06:55:55.257Z,2.82
2023-01-29T06:58:30.245Z,2.84
2023-01-29T07:01:05.656Z,2.88
2023-01-29T07:03:41.517Z,2.95
2023-01-29T07:06:15.304Z,2.99
2023-01-29T07:08:48.847Z,2.99
2023-01-29T07:11:23.657Z,2.95
2023-01-29T07:13:58.601Z,3.01
2023-01-29T07:16:32.706Z,3.03
2023-01-29T07:19:06.272Z,3.12
2023-01-29T07:21:40.082Z,3.11
2023-01-29T07:24:13.795Z,3.08
2023-01-29T07:26:47.554Z,3.22
2023-01-29T07:29:22.462Z,3.27
2023-01-29T07:31:56.352Z,3.24
2023-01-29T07:34:30.055Z,3.13
2023-01-29T07:37:04.285Z,3.09
2023-01-29T07:39:37.869Z,3.05
2023-01-29T07:42:11.574Z,3.06
2023-01-29T07:44:46.522Z,2.99
2023-01-29T07:47:20.239Z,3.00
2023-01-29T07:49:53.834Z,2.96
2023-01-29T07:52:27.743Z,2.81
2023-01-29T07:55:01.341Z,2.84
2023-01-29T07:57:35.165Z,2.90
2023-01-29T08:00:12.737Z,2.81
2023-01-29T08:02:46.576Z,2.89
2023-01-29T08:05:20.583Z,3.00
2023-01-29T08:08:06.011Z,3.05
2023-01-29T08:10:41.608Z,3.12
2023-01-29T08:13:16.081Z,3.04
2023-01-29T08:15:51.125Z,2.93
2023-01-29T08:18:24.926Z,2.87
2023-01-29T08:21:01.784Z,3.00
2023-01-29T08:23:35.903Z,3.00
2023-01-29T08:26:09.715Z,3.12
2023-01-29T08:28:43.439Z,3.17
2023-01-29T08:31:20.472Z,3.31
2023-01-29T08:33:55.691Z,3.40
2023-01-29T08:36:29.686Z,3.11
2023-01-29T08:39:03.805Z,3.22
2023-01-29T08:41:37.453Z,3.30
2023-01-29T08:44:11.404Z,3.34
2023-01-29T08:46:46.302Z,3.50
2023-01-29T08:49:20.083Z,3.50
2023-01-29T08:51:53.920Z,3.51
2023-01-29T08:54:27.842Z,3.46
2023-01-29T08:57:03.860Z,3.31
2023-01-29T08:59:38.208Z,3.29
2023-01-29T09:02:13.536Z,3.31
2023-01-29T09:04:47.518Z,3.31
2023-01-29T09:07:21.873Z,3.32
2023-01-29T09:09:56.392Z,3.44
2023-01-29T09:12:29.897Z,3.35
2023-01-29T09:15:03.965Z,3.32
2023-01-29T09:17:39.473Z,3.36
2023-01-29T09:20:13.677Z,3.39
2023-01-29T09:22:47.372Z,3.44
2023-01-29T09:25:21.215Z,3.60
2023-01-29T09:27:55.239Z,3.62
2023-01-29T09:30:29.035Z,3.66
2023-01-29T09:33:06.067Z,3.56
2023-01-29T09:35:42.152Z,3.56
2023-01-29T09:38:15.728Z,3.56
2023-01-29T09:40:57.160Z,3.70
2023-01-29T09:43:42.176Z,3.58
2023-01-29T09:46:22.355Z,3.55
2023-01-29T09:49:05.281Z,3.49
2023-01-29T09:51:42.652Z,3.60
2023-01-29T09:54:22.731Z,3.70
2023-01-29T09:56:58.055Z,3.59
2023-01-29T09:59:33.187Z,3.71
2023-01-29T10:02:11.457Z,3.73
2023-01-29T10:05:15.474Z,3.66
2023-01-29T10:08:14.429Z,3.82
2023-01-29T10:10:51.508Z,3.59
2023-01-29T10:13:33.977Z,3.70
2023-01-29T10:16:22.802Z,3.67
2023-01-29T10:19:16.314Z,3.68
2023-01-29T10:22:10.817Z,3.73
2023-01-29T10:24:53.612Z,3.67
2023-01-29T10:27:34.833Z,3.65
2023-01-29T10:30:10.937Z,3.62
2023-01-29T10:32:45.418Z,3.66
2023-01-29T10:35:26.116Z,3.74
2023-01-29T10:38:16.919Z,3.85
2023-01-29T10:41:00.845Z,3.65
2023-01-29T10:43:40.144Z,3.87
2023-01-29T10:46:24.941Z,3.84
2023-01-29T10:49:09.679Z,3.90
2023-01-29T10:51:57.919Z,3.99
2023-01-29T10:54:46.644Z,4.14
2023-01-29T10:57:27.646Z,4.08
2023-01-29T11:00:12.992Z,4.08
2023-01-29T11:02:50.234Z,4.15
2023-01-29T11:05:30.776Z,4.15
2023-01-29T11:08:09.741Z,4.11
2023-01-29T11:10:48.195Z,4.11
2023-01-29T11:13:27.217Z,4.25
2023-01-29T11:16:01.032Z,4.26
2023-01-29T11:18:50.982Z,4.28
2023-01-29T11:21:28.697Z,4.25
2023-01-29T11:24:16.713Z,4.39
2023-01-29T11:26:55.287Z,4.45
2023-01-29T11:29:34.954Z,4.49
2023-01-29T11:32:13.527Z,4.47
2023-01-29T11:35:01.994Z,4.53
2023-01-29T11:37:38.330Z,4.35
2023-01-29T11:40:37.816Z,4.30
2023-01-29T11:43:23.597Z,4.25
2023-01-29T11:46:00.193Z,4.29
2023-01-29T11:48:42.465Z,4.34
2023-01-29T11:51:23.631Z,4.39
2023-01-29T11:53:59.412Z,4.39
2023-01-29T11:56:41.061Z,4.41
2023-01-29T11:59:37.300Z,4.33
2023-01-29T12:02:28.321Z,4.28
2023-01-29T12:05:05.900Z,4.25
2023-01-29T12:07:42.724Z,4.42
2023-01-29T12:10:35.422Z,4.35
2023-01-29T12:13:26.604Z,4.27
2023-01-29T12:16:15.502Z,4.16
2023-01-29T12:18:55.137Z,4.24
2023-01-29T12:21:36.904Z,4.39
2023-01-29T12:24:20.562Z,4.25
2023-01-29T12:26:59.149Z,4.34
2023-01-29T12:29:37.800Z,4.24
2023-01-29T12:32:28.901Z,4.25
2023-01-29T12:35:07.339Z,4.42
2023-01-29T12:37:49.651Z,4.38
2023-01-29T12:40:28.063Z,4.34
2023-01-29T12:43:07.772Z,4.22
2023-01-29T12:45:44.876Z,3.99
2023-01-29T12:48:25.586Z,4.13
2023-01-29T12:51:08.039Z,4.07
2023-01-29T12:53:49.071Z,4.09
2023-01-29T12:56:30.845Z,4.00
2023-01-29T12:59:14.932Z,4.01
2023-01-29T13:01:53.580Z,3.99
2023-01-29T13:04:39.181Z,4.05
2023-01-29T13:07:17.087Z,4.14
2023-01-29T13:09:54.334Z,4.13
2023-01-29T13:12:28.671Z,4.21
2023-01-29T13:15:06.827Z,4.18
2023-01-29T13:17:44.977Z,4.22
2023-01-29T13:20:25.089Z,4.21
2023-01-29T13:23:04.796Z,4.14
2023-01-29T13:25:41.869Z,4.17
2023-01-29T13:28:21.007Z,4.19
2023-01-29T13:31:14.288Z,4.25
2023-01-29T13:33:55.121Z,4.30
2023-01-29T13:36:32.245Z,4.41
2023-01-29T13:39:08.760Z,4.38
2023-01-29T13:41:44.139Z,4.29
2023-01-29T13:44:23.086Z,4.27
2023-01-29T13:46:59.715Z,4.31
2023-01-29T13:49:40.125Z,4.50
2023-01-29T13:52:32.531Z,4.38
2023-01-29T13:55:09.143Z,4.40
2023-01-29T13:57:56.635Z,4.46
2023-01-29T14:01:01.965Z,4.41
2023-01-29T14:04:10.135Z,4.27
2023-01-29T14:06:50.119Z,4.29
2023-01-29T14:10:05.810Z,4.23
2023-01-29T14:12:46.310Z,4.10
2023-01-29T14:15:28.825Z,4.14
2023-01-29T14:18:15.522Z,4.11
2023-01-29T14:21:02.367Z,4.07
2023-01-29T14:23:42.353Z,4.03
2023-01-29T14:26:34.202Z,4.00
2023-01-29T14:29:32.537Z,4.06
2023-01-29T14:32:15.780Z,4.02
2023-01-29T14:34:51.952Z,4.12
2023-01-29T14:37:32.631Z,4.14
2023-01-29T14:40:21.545Z,4.11
2023-01-29T14:43:01.133Z,4.11
2023-01-29T14:45:37.713Z,4.14
2023-01-29T14:48:36.171Z,4.11
2023-01-29T14:51:11.627Z,4.10
2023-01-29T14:53:53.090Z,4.14
2023-01-29T14:56:34.474Z,4.23
2023-01-29T14:59:17.409Z,4.11
2023-01-29T15:01:55.917Z,4.07
2023-01-29T15:04:34.492Z,3.99
2023-01-29T15:07:18.946Z,4.05
2023-01-29T15:10:07.900Z,4.05
2023-01-29T15:12:54.280Z,3.99
2023-01-29T15:15:36.325Z,3.97
2023-01-29T15:18:16.784Z,3.90
2023-01-29T15:20:50.485Z,3.90
2023-01-29T15:23:28.631Z,3.91
2023-01-29T15:26:04.278Z,3.89
2023-01-29T15:28:39.711Z,3.90
2023-01-29T15:31:17.556Z,3.89
2023-01-29T15:33:56.053Z,3.86
2023-01-29T15:36:32.635Z,3.80
2023-01-29T15:39:15.586Z,3.79
2023-01-29T15:41:50.799Z,3.79
2023-01-29T15:44:24.765Z,3.76
2023-01-29T15:47:02.216Z,3.76
2023-01-29T15:49:40.562Z,3.76
2023-01-29T15:52:18.797Z,3.74
2023-01-29T15:54:53.926Z,3.76
2023-01-29T15:57:34.236Z,3.74
2023-01-29T16:00:21.090Z,3.77
2023-01-29T16:02:55.562Z,3.79
2023-01-29T16:05:33.031Z,3.82
2023-01-29T16:08:07.957Z,3.80
2023-01-29T16:10:43.220Z,3.83
2023-01-29T16:13:21.806Z,3.85
2023-01-29T16:15:56.551Z,3.89
2023-01-29T16:18:34.536Z,3.87
2023-01-29T16:21:15.604Z,3.85
2023-01-29T16:23:52.093Z,3.82
2023-01-29T16:26:29.161Z,3.83
2023-01-29T16:29:21.756Z,3.81
2023-01-29T16:32:01.878Z,3.84
2023-01-29T16:34:38.813Z,3.83
2023-01-29T16:37:24.761Z,3.82
2023-01-29T16:39:59.155Z,3.84
2023-01-29T16:42:35.920Z,3.79
2023-01-29T16:45:27.686Z,3.78
2023-01-29T16:48:02.853Z,3.82
2023-01-29T16:50:54.049Z,3.74
2023-01-29T16:53:30.133Z,3.77
2023-01-29T16:56:06.841Z,3.76
2023-01-29T16:58:40.656Z,3.68
2023-01-29T17:01:15.416Z,3.63
2023-01-29T17:03:56.333Z,3.60
2023-01-29T17:06:32.779Z,3.61
2023-01-29T17:09:08.324Z,3.66
2023-01-29T17:11:42.762Z,3.66
2023-01-29T17:14:20.153Z,3.64
2023-01-29T17:16:55.919Z,3.62
2023-01-29T17:19:30.253Z,3.63
2023-01-29T17:22:05.573Z,3.63
2023-01-29T17:24:40.818Z,3.68
2023-01-29T17:27:20.039Z,3.75
2023-01-29T17:29:54.165Z,3.82
2023-01-29T17:32:44.273Z,3.89
2023-01-29T17:35:19.261Z,3.71
2023-01-29T17:37:53.136Z,3.75
2023-01-29T17:40:36.577Z,3.75
2023-01-29T17:43:11.706Z,3.68
2023-01-29T17:45:45.539Z,3.71
2023-01-29T17:48:21.859Z,3.65
2023-01-29T17:50:57.806Z,3.63
2023-01-29T17:53:45.358Z,3.54
2023-01-29T17:56:27.547Z,3.44
2023-01-29T17:59:01.877Z,3.45
2023-01-29T18:01:35.745Z,3.38
2023-01-29T18:04:09.933Z,3.49
2023-01-29T18:06:45.240Z,3.58
2023-01-29T18:09:21.475Z,3.40
2023-01-29T18:11:56.691Z,3.43
2023-01-29T18:14:30.242Z,3.48
2023-01-29T18:17:04.199Z,3.44
2023-01-29T18:19:37.654Z,3.39
2023-01-29T18:22:13.487Z,3.36
2023-01-29T18:24:47.070Z,3.41
2023-01-29T18:27:22.249Z,3.36
2023-01-29T18:29:55.958Z,3.45
2023-01-29T18:32:29.814Z,3.43
2023-01-29T18:35:03.756Z,3.41
2023-01-29T18:37:37.658Z,3.39
2023-01-29T18:40:13.787Z,3.44
2023-01-29T18:42:49.126Z,3.40
2023-01-29T18:45:22.728Z,3.40
2023-01-29T18:47:57.635Z,3.44
2023-01-29T18:50:31.893Z,3.41
2023-01-29T18:53:07.970Z,3.44
2023-01-29T18:55:41.972Z,3.45
2023-01-29T18:58:28.125Z,3.49
2023-01-29T19:01:12.018Z,3.53
2023-01-29T19:03:45.921Z,3.51
2023-01-29T19:06:19.594Z,3.46
2023-01-29T19:08:53.493Z,3.42
2023-01-29T19:11:27.430Z,3.44
2023-01-29T19:14:02.791Z,3.50
2023-01-29T19:16:36.408Z,3.50
2023-01-29T19:19:10.313Z,3.47
2023-01-29T19:21:43.960Z,3.48
2023-01-29T19:24:18.648Z,3.40
2023-01-29T19:26:52.413Z,3.47
2023-01-29T19:29:27.688Z,3.56
2023-01-29T19:32:01.462Z,3.43
2023-01-29T19:34:35.364Z,3.36
2023-01-29T19:37:09.291Z,3.36
2023-01-29T19:39:43.233Z,3.34
2023-01-29T19:42:17.408Z,3.34
2023-01-29T19:44:53.370Z,3.34
2023-01-29T19:47:27.120Z,3.43
2023-01-29T19:50:00.898Z,3.47
2023-01-29T19:52:51.076Z,3.40
2023-01-29T19:55:25.999Z,3.50
2023-01-29T19:57:59.649Z,3.37
2023-01-29T20:00:36.981Z,3.44
2023-01-29T20:03:10.691Z,3.43
2023-01-29T20:05:44.407Z,3.45
2023-01-29T20:08:18.348Z,3.50
2023-01-29T20:10:52.233Z,3.50
2023-01-29T20:13:26.278Z,3.48
2023-01-29T20:16:03.129Z,3.48
2023-01-29T20:18:36.668Z,3.50
2023-01-29T20:21:12.767Z,3.46
2023-01-29T20:23:46.397Z,3.53
2023-01-29T20:26:21.748Z,3.51
2023-01-29T20:28:55.533Z,3.41
2023-01-29T20:31:30.739Z,3.41
2023-01-29T20:34:04.377Z,3.52
2023-01-29T20:36:38.131Z,3.58
2023-01-29T20:39:11.789Z,3.57
2023-01-29T20:41:45.726Z,3.53
2023-01-29T20:44:19.415Z,3.63
2023-01-29T20:46:54.858Z,3.60
2023-01-29T20:49:29.000Z,3.54
2023-01-29T20:52:02.724Z,3.57
2023-01-29T20:54:37.081Z,3.65
2023-01-29T20:57:10.865Z,3.55
2023-01-29T20:59:45.117Z,3.65
2023-01-29T21:02:20.325Z,3.56
2023-01-29T21:04:54.021Z,3.68
2023-01-29T21:07:27.765Z,3.73
2023-01-29T21:10:01.511Z,3.68
2023-01-29T21:12:35.924Z,3.55
2023-01-29T21:15:10.846Z,3.54
2023-01-29T21:17:48.337Z,3.63
2023-01-29T21:20:22.055Z,3.76
2023-01-29T21:22:56.019Z,3.84
2023-01-29T21:25:29.702Z,3.85
2023-01-29T21:28:04.372Z,3.78
2023-01-29T21:30:38.322Z,3.88
2023-01-29T21:33:13.435Z,3.82
2023-01-29T21:35:46.920Z,3.95
2023-01-29T21:38:20.749Z,3.90
2023-01-29T21:40:59.911Z,3.93
2023-01-29T21:43:33.279Z,4.05
2023-01-29T21:46:11.538Z,4.00
2023-01-29T21:48:46.886Z,4.00
2023-01-29T21:51:20.423Z,4.06
2023-01-29T21:53:54.210Z,4.13
2023-01-29T21:56:27.744Z,4.04
2023-01-29T21:59:02.345Z,4.17
2023-01-29T22:01:38.691Z,4.12
2023-01-29T22:04:15.613Z,4.14
2023-01-29T22:06:49.236Z,4.20
2023-01-29T22:09:23.506Z,4.13
2023-01-29T22:11:57.318Z,4.14
2023-01-29T22:14:31.241Z,4.21
2023-01-29T22:17:05.828Z,4.27
2023-01-29T22:19:41.102Z,4.17
2023-01-29T22:22:15.527Z,4.01
2023-01-29T22:24:50.749Z,4.00
2023-01-29T22:27:24.579Z,4.03
2023-01-29T22:29:58.323Z,3.98
2023-01-29T22:32:32.900Z,4.07
2023-01-29T22:35:09.356Z,4.11
2023-01-29T22:37:43.048Z,4.07
2023-01-29T22:40:17.428Z,4.06
2023-01-29T22:42:51.092Z,4.05
2023-01-29T22:45:24.945Z,4.03
2023-01-29T22:47:58.561Z,3.98
2023-01-29T22:50:33.693Z,4.13
2023-01-29T22:53:07.966Z,4.04
2023-01-29T22:55:41.838Z,4.03
2023-01-29T22:58:15.361Z,4.03
2023-01-29T23:00:50.949Z,3.95
2023-01-29T23:03:24.674Z,3.90
2023-01-29T23:05:59.815Z,3.83
2023-01-29T23:08:33.738Z,3.73
2023-01-29T23:11:15.052Z,3.74
2023-01-29T23:13:50.378Z,3.70
2023-01-29T23:16:28.172Z,3.69
2023-01-29T23:19:01.960Z,3.72
2023-01-29T23:21:37.180Z,3.74
2023-01-29T23:24:11.678Z,3.77
2023-01-29T23:27:02.920Z,3.73
2023-01-29T23:29:36.548Z,3.74
2023-01-29T23:32:10.775Z,3.76
2023-01-29T23:34:44.407Z,3.78
2023-01-29T23:37:19.680Z,3.80
2023-01-29T23:39:53.350Z,3.79
2023-01-29T23:42:27.123Z,3.87
2023-01-29T23:45:00.639Z,3.84
2023-01-29T23:47:34.448Z,3.86
2023-01-29T23:50:09.012Z,3.91
2023-01-29T23:52:44.249Z,3.89
2023-01-29T23:55:17.798Z,4.03
2023-01-29T23:57:51.471Z,4.07
